createdAt,value
2019-02-26T00:00:51.874Z,102368.81
2019-02-26T00:03:22.068Z,102363.98
2019-02-26T00:05:51.786Z,102366.20
2019-02-26T00:08:21.431Z,102361.80
2019-02-26T00:10:50.271Z,102336.05
2019-02-26T00:13:18.601Z,102368.43
2019-02-26T00:15:48.375Z,102372.87
2019-02-26T00:18:18.798Z,102366.29
2019-02-26T00:20:46.328Z,102365.41
2019-02-26T00:23:14.690Z,102368.05
2019-02-26T00:25:42.861Z,102365.00
2019-02-26T00:28:11.558Z,102363.23
2019-02-26T00:30:42.477Z,102371.63
2019-02-26T00:33:10.790Z,102368.11
2019-02-26T00:35:39.888Z,102377.80
2019-02-26T00:38:09.381Z,102376.49
2019-02-26T00:40:39.286Z,102374.32
2019-02-26T00:43:11.305Z,102370.36
2019-02-26T00:45:39.297Z,102367.75
2019-02-26T00:48:07.353Z,102368.20
2019-02-26T00:50:37.317Z,102366.00
2019-02-26T00:53:05.332Z,102368.22
2019-02-26T00:55:34.828Z,102366.48
2019-02-26T00:58:03.381Z,102366.03
2019-02-26T01:00:33.190Z,102361.22
2019-02-26T01:03:04.011Z,102351.98
2019-02-26T01:05:33.670Z,102357.70
2019-02-26T01:08:02.016Z,102348.91
2019-02-26T01:10:30.047Z,102354.20
2019-02-26T01:12:58.665Z,102356.43
2019-02-26T01:15:27.817Z,102358.19
2019-02-26T01:17:57.135Z,102366.13
2019-02-26T01:20:27.521Z,102361.75
2019-02-26T01:22:55.389Z,102372.33
2019-02-26T01:25:23.481Z,102361.77
2019-02-26T01:27:53.185Z,102354.75
2019-02-26T01:30:25.837Z,102338.45
2019-02-26T01:32:51.124Z,102344.20
2019-02-26T01:35:19.253Z,102335.84
2019-02-26T01:37:49.188Z,102338.50
2019-02-26T01:40:21.074Z,102335.45
2019-02-26T01:42:50.107Z,102346.02
2019-02-26T01:45:35.673Z,102342.97
2019-02-26T01:48:05.866Z,102330.20
2019-02-26T01:50:35.525Z,102319.65
2019-02-26T01:53:03.402Z,102320.10
2019-02-26T01:55:31.601Z,102310.02
2019-02-26T01:57:59.694Z,102304.76
2019-02-26T02:00:27.726Z,102313.11
2019-02-26T02:02:55.717Z,102304.77
2019-02-26T02:05:24.264Z,102302.59
2019-02-26T02:07:54.091Z,102299.49
2019-02-26T02:10:23.243Z,102302.15
2019-02-26T02:12:55.270Z,102302.16
2019-02-26T02:15:23.760Z,102307.87
2019-02-26T02:17:51.832Z,102306.14
2019-02-26T02:20:21.563Z,102295.59
2019-02-26T02:22:49.425Z,102293.41
2019-02-26T02:25:17.465Z,102292.97
2019-02-26T02:27:47.540Z,102286.83
2019-02-26T02:30:22.542Z,102291.69
2019-02-26T02:32:48.154Z,102296.52
2019-02-26T02:35:18.501Z,102296.99
2019-02-26T02:37:44.927Z,102292.58
2019-02-26T02:40:12.955Z,102297.44
2019-02-26T02:42:43.270Z,102294.39
2019-02-26T02:45:13.498Z,102290.87
2019-02-26T02:47:40.682Z,102289.14
2019-02-26T02:50:12.068Z,102286.93
2019-02-26T02:52:39.398Z,102277.29
2019-02-26T02:55:09.870Z,102279.06
2019-02-26T02:57:37.624Z,102281.70
2019-02-26T03:00:08.541Z,102275.53
2019-02-26T03:02:40.590Z,102279.97
2019-02-26T03:05:06.564Z,102285.27
2019-02-26T03:07:34.658Z,102290.09
2019-02-26T03:10:06.786Z,102283.97
2019-02-26T03:12:34.787Z,102280.02
2019-02-26T03:15:04.839Z,102289.28
2019-02-26T03:17:32.789Z,102284.86
2019-02-26T03:20:02.731Z,102285.33
2019-02-26T03:22:30.787Z,102291.05
2019-02-26T03:24:59.674Z,102292.38
2019-02-26T03:27:31.182Z,102294.13
2019-02-26T03:30:01.746Z,102296.78
2019-02-26T03:32:28.294Z,102294.61
2019-02-26T03:34:56.269Z,102295.06
2019-02-26T03:37:25.805Z,102291.10
2019-02-26T03:39:55.203Z,102292.00
2019-02-26T03:42:23.666Z,102290.70
2019-02-26T03:44:51.913Z,102299.05
2019-02-26T03:47:19.909Z,102292.45
2019-02-26T03:49:47.951Z,102294.68
2019-02-26T03:52:15.992Z,102290.73
2019-02-26T03:54:45.958Z,102289.84
2019-02-26T03:57:14.306Z,102292.06
2019-02-26T03:59:43.793Z,102286.34
2019-02-26T04:02:14.460Z,102292.08
2019-02-26T04:04:41.603Z,102296.91
2019-02-26T04:07:10.609Z,102293.86
2019-02-26T04:09:41.916Z,102290.33
2019-02-26T04:12:11.225Z,102290.80
2019-02-26T04:14:38.694Z,102287.28
2019-02-26T04:17:08.878Z,102292.14
2019-02-26T04:19:36.649Z,102298.75
2019-02-26T04:22:23.440Z,102298.30
2019-02-26T04:24:53.049Z,102294.34
2019-02-26T04:27:41.373Z,102300.95
2019-02-26T04:30:19.033Z,102296.15
2019-02-26T04:32:52.970Z,102302.28
2019-02-26T04:35:27.559Z,102298.34
2019-02-26T04:38:13.258Z,102300.56
2019-02-26T04:40:48.499Z,102301.45
2019-02-26T04:43:36.294Z,102297.05
2019-02-26T04:46:28.820Z,102297.06
2019-02-26T04:48:56.595Z,102301.50
2019-02-26T04:51:24.719Z,102307.63
2019-02-26T04:53:54.179Z,102308.53
2019-02-26T04:56:22.310Z,102310.75
2019-02-26T04:58:50.437Z,102307.66
2019-02-26T05:01:19.213Z,102301.97
2019-02-26T05:03:47.420Z,102302.41
2019-02-26T05:06:15.550Z,102302.88
2019-02-26T05:08:43.501Z,102301.98
2019-02-26T05:11:14.880Z,102292.77
2019-02-26T05:13:41.385Z,102292.78
2019-02-26T05:16:09.478Z,102290.59
2019-02-26T05:18:37.427Z,102287.95
2019-02-26T05:21:08.276Z,102284.00
2019-02-26T05:23:35.330Z,102284.00
2019-02-26T05:26:05.619Z,102263.38
2019-02-26T05:28:37.698Z,102273.46
2019-02-26T05:31:04.479Z,102267.33
2019-02-26T05:33:33.061Z,102277.41
2019-02-26T05:36:03.380Z,102282.68
2019-02-26T05:38:32.963Z,102280.05
2019-02-26T05:41:00.683Z,102287.09
2019-02-26T05:43:30.658Z,102285.77
2019-02-26T05:46:00.700Z,102288.83
2019-02-26T05:48:28.197Z,102282.23
2019-02-26T05:50:57.528Z,102284.43
2019-02-26T05:53:26.337Z,102279.16
2019-02-26T05:55:56.045Z,102283.11
2019-02-26T05:58:24.017Z,102278.68
2019-02-26T06:00:52.160Z,102284.84
2019-02-26T06:03:20.383Z,102278.66
2019-02-26T06:05:51.664Z,102273.80
2019-02-26T06:08:18.553Z,102270.67
2019-02-26T06:10:46.713Z,102276.79
2019-02-26T06:13:15.696Z,102274.53
2019-02-26T06:15:43.866Z,102283.71
2019-02-26T06:18:11.829Z,102285.46
2019-02-26T06:20:39.906Z,102287.59
2019-02-26T06:23:07.932Z,102290.19
2019-02-26T06:25:36.169Z,102295.89
2019-02-26T06:28:06.855Z,102289.70
2019-02-26T06:30:34.135Z,102290.98
2019-02-26T06:33:04.368Z,102299.30
2019-02-26T06:35:33.593Z,102293.99
2019-02-26T06:38:04.128Z,102297.06
2019-02-26T06:40:34.489Z,102306.27
2019-02-26T06:43:03.015Z,102305.38
2019-02-26T06:45:31.160Z,102304.92
2019-02-26T06:47:59.305Z,102309.72
2019-02-26T06:50:27.406Z,102315.44
2019-02-26T06:52:55.483Z,102311.90
2019-02-26T06:55:23.514Z,102314.94
2019-02-26T06:57:52.860Z,102315.39
2019-02-26T07:00:24.261Z,102315.80
2019-02-26T07:02:51.030Z,102313.14
2019-02-26T07:05:19.050Z,102302.15
2019-02-26T07:07:47.102Z,102302.15
2019-02-26T07:10:18.452Z,102297.70
2019-02-26T07:12:46.252Z,102308.69
2019-02-26T07:15:15.051Z,102314.79
2019-02-26T07:17:46.050Z,102314.30
2019-02-26T07:20:13.058Z,102316.49
2019-02-26T07:22:41.566Z,102309.39
2019-02-26T07:25:13.189Z,102311.58
2019-02-26T07:27:40.615Z,102311.16
2019-02-26T07:30:08.838Z,102315.55
2019-02-26T07:32:38.385Z,102308.48
2019-02-26T07:35:08.729Z,102303.19
2019-02-26T07:37:38.563Z,102300.06
2019-02-26T07:40:08.770Z,102302.23
2019-02-26T07:42:39.127Z,102304.84
2019-02-26T07:45:14.641Z,102307.02
2019-02-26T07:47:37.031Z,102306.52
2019-02-26T07:50:06.705Z,102309.11
2019-02-26T07:52:34.651Z,102309.95
2019-02-26T07:55:03.705Z,102312.10
2019-02-26T07:57:32.604Z,102308.52
2019-02-26T08:00:01.202Z,102309.78
2019-02-26T08:02:30.663Z,102309.30
2019-02-26T08:04:59.989Z,102310.12
2019-02-26T08:07:28.547Z,102311.87
2019-02-26T08:09:58.018Z,102310.03
2019-02-26T08:12:26.393Z,102308.63
2019-02-26T08:14:54.357Z,102312.14
2019-02-26T08:17:22.346Z,102313.01
2019-02-26T08:19:50.327Z,102313.80
2019-02-26T08:22:18.368Z,102314.66
2019-02-26T08:24:48.631Z,102306.25
2019-02-26T08:27:16.185Z,102307.91
2019-02-26T08:29:44.390Z,102306.48
2019-02-26T08:32:15.939Z,102305.14
2019-02-26T08:34:42.202Z,102297.62
2019-02-26T08:37:10.276Z,102300.66
2019-02-26T08:39:38.773Z,102303.56
2019-02-26T08:42:08.040Z,102299.77
2019-02-26T08:44:36.256Z,102297.30
2019-02-26T08:47:08.789Z,102301.54
2019-02-26T08:49:35.341Z,102298.75
2019-02-26T08:52:04.453Z,102294.59
2019-02-26T08:54:33.313Z,102288.27
2019-02-26T08:57:02.530Z,102285.62
2019-02-26T08:59:30.586Z,102283.38
2019-02-26T09:01:58.586Z,102288.18
2019-02-26T09:04:26.634Z,102286.50
2019-02-26T09:06:57.039Z,102286.14
2019-02-26T09:09:25.948Z,102279.97
2019-02-26T09:11:55.935Z,102282.02
2019-02-26T09:14:24.658Z,102276.20
2019-02-26T09:16:54.956Z,102276.05
2019-02-26T09:19:22.665Z,102272.39
2019-02-26T09:21:52.908Z,102273.87
2019-02-26T09:24:21.822Z,102269.64
2019-02-26T09:26:52.035Z,102273.87
2019-02-26T09:29:19.641Z,102274.55
2019-02-26T09:31:49.410Z,102266.52
2019-02-26T09:34:17.655Z,102268.56
2019-02-26T09:36:45.817Z,102263.58
2019-02-26T09:39:15.544Z,102270.97
2019-02-26T09:41:45.552Z,102279.09
2019-02-26T09:44:13.389Z,102272.84
2019-02-26T09:46:43.831Z,102277.64
2019-02-26T09:49:12.623Z,102280.63
2019-02-26T09:51:40.770Z,102282.34
2019-02-26T09:54:10.960Z,102280.50
2019-02-26T09:56:38.513Z,102282.64
2019-02-26T09:59:07.137Z,102286.55
2019-02-26T10:01:37.822Z,102285.57
2019-02-26T10:04:06.311Z,102289.88
2019-02-26T10:06:35.607Z,102286.21
2019-02-26T10:09:05.152Z,102286.48
2019-02-26T10:11:33.322Z,102277.97
2019-02-26T10:14:02.888Z,102278.27
2019-02-26T10:16:32.995Z,102283.12
2019-02-26T10:19:00.708Z,102275.17
2019-02-26T10:21:28.713Z,102271.59
2019-02-26T10:23:59.329Z,102264.08
2019-02-26T10:26:30.494Z,102271.92
2019-02-26T10:29:03.355Z,102269.20
2019-02-26T10:31:27.590Z,102263.86
2019-02-26T10:33:55.773Z,102268.20
2019-02-26T10:36:23.877Z,102264.59
2019-02-26T10:38:53.180Z,102258.36
2019-02-26T10:41:21.703Z,102257.84
2019-02-26T10:43:49.833Z,102260.05
2019-02-26T10:46:18.078Z,102255.63
2019-02-26T10:48:47.960Z,102252.50
2019-02-26T10:51:17.089Z,102250.77
2019-02-26T10:53:45.222Z,102255.16
2019-02-26T10:56:13.458Z,102247.66
2019-02-26T10:58:41.547Z,102246.30
2019-02-26T11:01:09.613Z,102245.38
2019-02-26T11:03:40.836Z,102253.34
2019-02-26T11:06:09.873Z,102248.44
2019-02-26T11:08:37.246Z,102255.95
2019-02-26T11:11:07.322Z,102248.84
2019-02-26T11:13:37.069Z,102250.94
2019-02-26T11:16:05.002Z,102254.40
2019-02-26T11:18:34.708Z,102247.39
2019-02-26T11:21:03.269Z,102255.32
2019-02-26T11:23:33.890Z,102250.30
2019-02-26T11:26:01.260Z,102245.27
2019-02-26T11:28:32.735Z,102249.98
2019-02-26T11:30:59.278Z,102247.97
2019-02-26T11:33:27.322Z,102238.98
2019-02-26T11:35:55.474Z,102234.36
2019-02-26T11:38:23.807Z,102235.52
2019-02-26T11:40:52.016Z,102231.36
2019-02-26T11:43:23.028Z,102228.97
2019-02-26T11:45:49.798Z,102225.38
2019-02-26T11:48:18.075Z,102218.20
2019-02-26T11:50:46.133Z,102217.64
2019-02-26T11:53:14.245Z,102215.87
2019-02-26T11:55:42.665Z,102215.78
2019-02-26T11:58:13.063Z,102211.34
2019-02-26T12:00:50.650Z,102213.03
2019-02-26T12:03:22.866Z,102215.24
2019-02-26T12:05:49.569Z,102210.15
2019-02-26T12:08:21.837Z,102210.94
2019-02-26T12:10:47.229Z,102210.85
2019-02-26T12:13:17.095Z,102208.91
2019-02-26T12:15:45.239Z,102204.47
2019-02-26T12:18:15.454Z,102206.55
2019-02-26T12:20:45.732Z,102198.88
2019-02-26T12:23:15.605Z,102198.83
2019-02-26T12:25:42.482Z,102198.28
2019-02-26T12:28:11.609Z,102194.25
2019-02-26T12:30:43.751Z,102197.31
2019-02-26T12:33:12.337Z,102190.56
2019-02-26T12:35:40.595Z,102196.81
2019-02-26T12:38:18.208Z,102194.91
2019-02-26T12:40:41.119Z,102192.11
2019-02-26T12:43:11.674Z,102193.24
2019-02-26T12:45:40.715Z,102185.27
2019-02-26T12:48:10.269Z,102182.98
2019-02-26T12:50:40.331Z,102185.59
2019-02-26T12:53:12.607Z,102184.62
2019-02-26T12:55:42.329Z,102183.24
2019-02-26T12:58:11.241Z,102178.80
2019-02-26T13:00:42.040Z,102171.60
2019-02-26T13:03:12.683Z,102177.11
2019-02-26T13:05:42.383Z,102163.47
2019-02-26T13:08:12.672Z,102165.58
2019-02-26T13:10:42.621Z,102160.21
2019-02-26T13:13:10.161Z,102149.97
2019-02-26T13:15:38.583Z,102147.48
2019-02-26T13:18:06.838Z,102145.62
2019-02-26T13:20:34.795Z,102145.56
2019-02-26T13:23:16.278Z,102141.80
2019-02-26T13:25:32.778Z,102140.09
2019-02-26T13:28:00.837Z,102132.20
2019-02-26T13:30:28.824Z,102133.97
2019-02-26T13:33:00.034Z,102135.48
2019-02-26T13:35:26.855Z,102131.39
2019-02-26T13:37:54.997Z,102131.63
2019-02-26T13:40:22.955Z,102132.27
2019-02-26T13:45:21.246Z,102128.06
2019-02-26T13:47:49.386Z,102129.34
2019-02-26T13:50:19.264Z,102127.91
2019-02-26T13:52:47.413Z,102129.92
2019-02-26T13:55:15.532Z,102125.08
2019-02-26T13:57:43.755Z,102121.37
2019-02-26T14:00:12.301Z,102119.98
2019-02-26T14:02:40.445Z,102114.16
2019-02-26T14:05:08.978Z,102113.05
2019-02-26T14:07:37.058Z,102104.08
2019-02-26T14:10:05.541Z,102109.72
2019-02-26T14:12:33.609Z,102114.67
2019-02-26T14:15:03.711Z,102108.72
2019-02-26T14:17:31.501Z,102112.50
2019-02-26T14:19:59.776Z,102106.50
2019-02-26T14:22:28.028Z,102097.39
2019-02-26T14:24:56.450Z,102092.58
2019-02-26T14:27:24.483Z,102089.52
2019-02-26T14:29:52.504Z,102085.92
2019-02-26T14:32:20.525Z,102090.20
2019-02-26T14:34:48.573Z,102088.36
2019-02-26T14:37:16.602Z,102086.92
2019-02-26T14:39:44.936Z,102089.98
2019-02-26T14:42:12.966Z,102085.03
2019-02-26T14:44:41.217Z,102081.09
2019-02-26T14:47:09.255Z,102084.55
2019-02-26T14:49:37.246Z,102079.28
2019-02-26T14:52:05.218Z,102077.89
2019-02-26T14:54:33.270Z,102075.11
2019-02-26T14:57:01.314Z,102071.02
2019-02-26T14:59:29.293Z,102066.11
2019-02-26T15:01:57.330Z,102062.52
2019-02-26T15:04:25.425Z,102064.56
2019-02-26T15:06:53.480Z,102059.23
2019-02-26T15:09:21.650Z,102052.41
2019-02-26T15:11:49.910Z,102055.01
2019-02-26T15:14:18.155Z,102049.56
2019-02-26T15:16:46.246Z,102045.45
2019-02-26T15:19:14.428Z,102045.28
2019-02-26T15:21:42.475Z,102047.34
2019-02-26T15:24:10.661Z,102035.61
2019-02-26T15:26:38.818Z,102037.22
2019-02-26T15:29:07.251Z,102034.92
2019-02-26T15:31:35.409Z,102034.41
2019-02-26T15:34:03.536Z,102031.68
2019-02-26T15:36:32.415Z,102031.84
2019-02-26T15:39:00.514Z,102033.81
2019-02-26T15:41:28.545Z,102039.02
2019-02-26T15:43:57.056Z,102038.02
2019-02-26T15:46:25.572Z,102032.17
2019-02-26T15:48:53.951Z,102029.72
2019-02-26T15:51:21.994Z,102026.93
2019-02-26T15:53:50.147Z,102028.62
2019-02-26T15:56:18.901Z,102028.02
2019-02-26T15:58:46.987Z,102028.44
2019-02-26T16:01:15.192Z,102031.77
2019-02-26T16:03:44.001Z,102030.25
2019-02-26T16:06:11.998Z,102026.73
2019-02-26T16:08:41.229Z,102028.45
2019-02-26T16:11:09.804Z,102024.70
2019-02-26T16:13:37.999Z,102029.08
2019-02-26T16:16:06.079Z,102029.17
2019-02-26T16:18:34.045Z,102027.39
2019-02-26T16:21:02.158Z,102021.59
2019-02-26T16:23:30.649Z,102017.80
2019-02-26T16:25:59.014Z,102019.92
2019-02-26T16:28:28.152Z,102022.87
2019-02-26T16:30:57.202Z,102019.05
2019-02-26T16:33:25.409Z,102021.52
2019-02-26T16:35:57.613Z,102024.84
2019-02-26T16:38:23.322Z,102023.67
2019-02-26T16:40:51.817Z,102020.81
2019-02-26T16:43:19.850Z,102021.58
2019-02-26T16:45:47.901Z,102017.86
2019-02-26T16:48:16.171Z,102023.80
2019-02-26T16:50:45.571Z,102025.19
2019-02-26T16:53:14.404Z,102024.95
2019-02-26T16:55:42.542Z,102034.54
2019-02-26T16:58:10.774Z,102036.98
2019-02-26T17:00:38.867Z,102027.54
2019-02-26T17:03:06.854Z,102039.19
2019-02-26T17:05:34.986Z,102038.86
2019-02-26T17:08:03.018Z,102045.62
2019-02-26T17:10:31.346Z,102040.98
2019-02-26T17:13:01.773Z,102048.59
2019-02-26T17:15:29.059Z,102051.88
2019-02-26T17:17:57.229Z,102052.93
2019-02-26T17:20:26.442Z,102051.30
2019-02-26T17:22:54.471Z,102049.73
2019-02-26T17:25:27.505Z,102053.33
2019-02-26T17:27:52.461Z,102053.03
2019-02-26T17:30:20.927Z,102056.77
2019-02-26T17:32:50.526Z,102055.53
2019-02-26T17:35:18.766Z,102057.41
2019-02-26T17:37:47.034Z,102058.44
2019-02-26T17:40:18.725Z,102066.02
2019-02-26T17:42:48.873Z,102067.45
2019-02-26T17:45:19.221Z,102066.70
2019-02-26T17:47:50.110Z,102068.97
2019-02-26T17:50:28.784Z,102062.02
2019-02-26T17:52:57.185Z,102066.50
2019-02-26T17:55:25.618Z,102062.20
2019-02-26T17:57:53.846Z,102061.38
2019-02-26T18:00:22.818Z,102061.99
2019-02-26T18:02:51.078Z,102070.86
2019-02-26T18:05:19.149Z,102072.27
2019-02-26T18:07:47.221Z,102071.97
2019-02-26T18:10:16.188Z,102070.73
2019-02-26T18:12:44.244Z,102068.60
2019-02-26T18:15:16.614Z,102072.20
2019-02-26T18:17:42.254Z,102070.97
2019-02-26T18:20:11.852Z,102072.86
2019-02-26T18:22:40.050Z,102072.07
2019-02-26T18:25:09.182Z,102071.67
2019-02-26T18:27:37.617Z,102073.08
2019-02-26T18:30:05.870Z,102065.66
2019-02-26T18:32:34.275Z,102058.22
2019-02-26T18:35:02.491Z,102061.41
2019-02-26T18:37:30.821Z,102066.75
2019-02-26T18:39:58.935Z,102062.86
2019-02-26T18:42:27.368Z,102058.48
2019-02-26T18:44:55.349Z,102059.50
2019-02-26T18:47:23.458Z,102065.30
2019-02-26T18:49:52.851Z,102065.86
2019-02-26T18:52:21.400Z,102067.27
2019-02-26T18:54:53.931Z,102060.72
2019-02-26T18:57:19.201Z,102062.09
2019-02-26T18:59:47.402Z,102057.72
2019-02-26T19:02:16.943Z,102060.41
2019-02-26T19:04:48.263Z,102063.59
2019-02-26T19:07:14.930Z,102064.52
2019-02-26T19:09:44.993Z,102067.22
2019-02-26T19:12:12.870Z,102061.59
2019-02-26T19:14:42.349Z,102062.07
2019-02-26T19:17:10.605Z,102062.11
2019-02-26T19:19:39.756Z,102064.41
2019-02-26T19:22:08.565Z,102061.39
2019-02-26T19:24:36.609Z,102062.27
2019-02-26T19:27:04.742Z,102060.14
2019-02-26T19:29:32.926Z,102059.75
2019-02-26T19:32:01.023Z,102062.48
2019-02-26T19:34:29.076Z,102058.09
2019-02-26T19:36:57.205Z,102059.91
2019-02-26T19:39:26.049Z,102068.78
2019-02-26T19:41:54.084Z,102068.87
2019-02-26T19:44:22.405Z,102064.52
2019-02-26T19:46:51.530Z,102070.31
2019-02-26T19:49:19.641Z,102075.25
2019-02-26T19:51:47.794Z,102076.14
2019-02-26T19:54:15.833Z,102069.14
2019-02-26T19:56:43.994Z,102076.22
2019-02-26T19:59:13.789Z,102071.88
2019-02-26T20:01:41.910Z,102072.83
2019-02-26T20:04:10.291Z,102081.71
2019-02-26T20:06:38.282Z,102086.61
2019-02-26T20:09:07.079Z,102086.20
2019-02-26T20:11:37.391Z,102083.63
2019-02-26T20:14:05.746Z,102079.69
2019-02-26T20:16:35.225Z,102079.29
2019-02-26T20:19:04.427Z,102077.12
2019-02-26T20:21:32.634Z,102080.25
2019-02-26T20:24:00.883Z,102088.64
2019-02-26T20:26:28.982Z,102085.18
2019-02-26T20:28:57.045Z,102087.43
2019-02-26T20:31:25.158Z,102087.06
2019-02-26T20:33:53.925Z,102079.55
2019-02-26T20:36:22.079Z,102087.13
2019-02-26T20:38:50.336Z,102080.95
2019-02-26T20:41:19.820Z,102073.52
2019-02-26T20:43:48.840Z,102070.05
2019-02-26T20:46:17.037Z,102078.00
2019-02-26T20:48:46.370Z,102070.53
2019-02-26T20:51:14.401Z,102063.95
2019-02-26T20:53:48.177Z,102056.95
2019-02-26T20:56:16.523Z,102054.38
2019-02-26T20:58:45.425Z,102057.94
2019-02-26T21:01:13.835Z,102059.27
2019-02-26T21:03:41.842Z,102065.45
2019-02-26T21:06:09.886Z,102065.48
2019-02-26T21:08:38.001Z,102059.78
2019-02-26T21:11:06.137Z,102059.41
2019-02-26T21:13:34.895Z,102058.13
2019-02-26T21:16:03.810Z,102060.81
2019-02-26T21:18:32.148Z,102054.70
2019-02-26T21:21:00.121Z,102048.55
2019-02-26T21:23:29.925Z,102046.41
2019-02-26T21:25:58.010Z,102045.12
2019-02-26T21:28:26.215Z,102042.48
2019-02-26T21:30:54.345Z,102047.77
2019-02-26T21:33:22.574Z,102046.48
2019-02-26T21:35:51.913Z,102048.73
2019-02-26T21:38:20.631Z,102047.48
2019-02-26T21:40:49.827Z,102052.77
2019-02-26T21:43:18.365Z,102051.05
2019-02-26T21:45:49.100Z,102046.66
2019-02-26T21:48:16.249Z,102052.44
2019-02-26T21:50:44.350Z,102046.73
2019-02-26T21:53:12.721Z,102043.58
2019-02-26T21:55:44.391Z,102042.76
2019-02-26T21:58:12.322Z,102040.59
2019-02-26T22:00:40.322Z,102044.59
2019-02-26T22:03:08.330Z,102037.13
2019-02-26T22:05:37.953Z,102034.55
2019-02-26T22:08:06.493Z,102032.38
2019-02-26T22:10:34.737Z,102038.11
2019-02-26T22:13:02.802Z,102035.91
2019-02-26T22:15:30.876Z,102040.80
2019-02-26T22:17:59.107Z,102034.20
2019-02-26T22:20:35.838Z,102035.12
2019-02-26T22:22:57.838Z,102026.37
2019-02-26T22:25:27.166Z,102025.08
2019-02-26T22:27:55.426Z,102028.64
2019-02-26T22:30:23.634Z,102019.41
2019-02-26T22:32:51.965Z,102027.35
2019-02-26T22:35:20.020Z,102026.47
2019-02-26T22:37:48.068Z,102022.53
2019-02-26T22:40:16.350Z,102024.36
2019-02-26T22:42:44.314Z,102019.55
2019-02-26T22:45:12.793Z,102020.02
2019-02-26T22:47:42.136Z,102018.29
2019-02-26T22:50:11.264Z,102014.42
2019-02-26T22:52:39.581Z,102013.13
2019-02-26T22:55:08.113Z,102019.75
2019-02-26T22:57:36.470Z,102014.08
2019-02-26T23:00:08.185Z,102010.14
2019-02-26T23:02:40.627Z,102008.41
2019-02-26T23:05:06.142Z,102002.27
2019-02-26T23:07:39.148Z,102002.30
2019-02-26T23:10:04.225Z,102004.98
2019-02-26T23:12:32.511Z,102000.59
2019-02-26T23:15:00.689Z,102001.14
2019-02-26T23:17:29.100Z,101995.41
2019-02-26T23:19:57.121Z,101995.47
2019-02-26T23:22:25.312Z,101995.50
2019-02-26T23:24:53.583Z,101989.39
2019-02-26T23:27:21.786Z,101992.98
2019-02-26T23:29:49.902Z,101986.03
2019-02-26T23:32:18.083Z,101976.73
2019-02-26T23:35:01.610Z,101974.53
2019-02-26T23:37:34.298Z,101975.45
2019-02-26T23:39:59.440Z,101978.53
2019-02-26T23:42:27.518Z,101975.91
2019-02-26T23:44:55.742Z,101973.34
2019-02-26T23:47:23.844Z,101977.39
2019-02-26T23:49:51.930Z,101977.93
2019-02-26T23:52:20.035Z,101976.67
2019-02-26T23:54:48.164Z,101979.81
2019-02-26T23:57:16.292Z,101980.29
2019-02-26T23:59:44.341Z,101977.67
